sensor_id;sensor_type;location;lat;lon;timestamp;P1;durP1;ratioP1;P2;durP2;ratioP2
25980;SDS011;13772;52.996;9.124;2023-08-17T05:13:01;7.57;;;1.90;;
25980;SDS011;13772;52.996;9.124;2023-08-17T05:15:27;4.88;;;1.83;;
25980;SDS011;13772;52.996;9.124;2023-08-17T05:17:54;6.97;;;2.20;;
25980;SDS011;13772;52.996;9.124;2023-08-17T05:20:19;7.05;;;1.90;;
25980;SDS011;13772;52.996;9.124;2023-08-17T05:22:46;7.55;;;2.13;;
25980;SDS011;13772;52.996;9.124;2023-08-17T05:25:11;6.20;;;2.58;;
25980;SDS011;13772;52.996;9.124;2023-08-17T05:27:38;7.75;;;2.28;;
25980;SDS011;13772;52.996;9.124;2023-08-17T05:30:04;7.05;;;2.38;;
25980;SDS011;13772;52.996;9.124;2023-08-17T05:32:29;7.40;;;2.80;;
25980;SDS011;13772;52.996;9.124;2023-08-17T05:34:55;6.80;;;2.38;;
25980;SDS011;13772;52.996;9.124;2023-08-17T05:37:20;6.22;;;2.78;;
25980;SDS011;13772;52.996;9.124;2023-08-17T05:39:45;5.47;;;2.63;;
25980;SDS011;13772;52.996;9.124;2023-08-17T05:42:10;11.63;;;3.25;;
25980;SDS011;13772;52.996;9.124;2023-08-17T05:44:36;5.10;;;2.47;;
25980;SDS011;13772;52.996;9.124;2023-08-17T05:47:01;5.30;;;2.55;;
25980;SDS011;13772;52.996;9.124;2023-08-17T05:49:26;6.95;;;2.97;;
25980;SDS011;13772;52.996;9.124;2023-08-17T05:51:52;5.68;;;2.78;;
25980;SDS011;13772;52.996;9.124;2023-08-17T05:54:17;6.97;;;2.92;;
25980;SDS011;13772;52.996;9.124;2023-08-17T05:56:42;5.57;;;3.05;;
25980;SDS011;13772;52.996;9.124;2023-08-17T05:59:11;6.43;;;3.00;;
25980;SDS011;13772;52.996;9.124;2023-08-17T06:01:36;7.70;;;3.63;;
25980;SDS011;13772;52.996;9.124;2023-08-17T06:04:03;10.02;;;3.22;;
25980;SDS011;13772;52.996;9.124;2023-08-17T06:06:28;11.38;;;3.50;;
25980;SDS011;13772;52.996;9.124;2023-08-17T06:08:53;7.63;;;3.58;;
25980;SDS011;13772;52.996;9.124;2023-08-17T06:11:18;8.05;;;3.00;;
25980;SDS011;13772;52.996;9.124;2023-08-17T06:13:44;10.40;;;3.55;;
25980;SDS011;13772;52.996;9.124;2023-08-17T06:16:09;8.70;;;3.00;;
25980;SDS011;13772;52.996;9.124;2023-08-17T06:18:35;10.60;;;3.85;;
25980;SDS011;13772;52.996;9.124;2023-08-17T06:21:01;8.30;;;3.58;;
25980;SDS011;13772;52.996;9.124;2023-08-17T06:23:26;6.40;;;2.83;;
25980;SDS011;13772;52.996;9.124;2023-08-17T06:25:55;9.25;;;3.38;;
25980;SDS011;13772;52.996;9.124;2023-08-17T06:28:20;10.00;;;3.55;;
25980;SDS011;13772;52.996;9.124;2023-08-17T06:30:46;5.93;;;3.30;;
25980;SDS011;13772;52.996;9.124;2023-08-17T06:33:11;5.47;;;3.00;;
25980;SDS011;13772;52.996;9.124;2023-08-17T06:35:36;9.30;;;3.40;;
25980;SDS011;13772;52.996;9.124;2023-08-17T06:38:01;10.60;;;3.47;;
25980;SDS011;13772;52.996;9.124;2023-08-17T06:40:27;9.25;;;3.88;;
25980;SDS011;13772;52.996;9.124;2023-08-17T06:42:52;6.57;;;3.42;;
25980;SDS011;13772;52.996;9.124;2023-08-17T06:45:19;11.70;;;3.58;;
25980;SDS011;13772;52.996;9.124;2023-08-17T06:47:45;9.43;;;3.70;;
25980;SDS011;13772;52.996;9.124;2023-08-17T06:50:10;7.47;;;3.33;;
25980;SDS011;13772;52.996;9.124;2023-08-17T06:52:35;9.82;;;3.67;;
25980;SDS011;13772;52.996;9.124;2023-08-17T06:55:01;8.88;;;3.63;;
25980;SDS011;13772;52.996;9.124;2023-08-17T06:57:26;7.60;;;3.53;;
25980;SDS011;13772;52.996;9.124;2023-08-17T06:59:51;8.55;;;3.47;;
25980;SDS011;13772;52.996;9.124;2023-08-17T07:02:17;7.00;;;3.58;;
25980;SDS011;13772;52.996;9.124;2023-08-17T07:04:42;8.68;;;4.05;;
25980;SDS011;13772;52.996;9.124;2023-08-17T07:07:08;9.55;;;3.33;;
25980;SDS011;13772;52.996;9.124;2023-08-17T07:09:33;7.55;;;3.33;;
25980;SDS011;13772;52.996;9.124;2023-08-17T07:11:58;7.25;;;3.20;;
25980;SDS011;13772;52.996;9.124;2023-08-17T07:14:23;8.38;;;3.33;;
25980;SDS011;13772;52.996;9.124;2023-08-17T07:16:49;5.43;;;3.08;;
25980;SDS011;13772;52.996;9.124;2023-08-17T07:19:15;8.13;;;3.38;;
25980;SDS011;13772;52.996;9.124;2023-08-17T07:21:40;7.40;;;3.90;;
25980;SDS011;13772;52.996;9.124;2023-08-17T07:24:11;10.13;;;3.25;;
25980;SDS011;13772;52.996;9.124;2023-08-17T07:26:36;5.88;;;3.10;;
25980;SDS011;13772;52.996;9.124;2023-08-17T07:29:01;6.88;;;3.17;;
25980;SDS011;13772;52.996;9.124;2023-08-17T07:31:26;7.97;;;3.33;;
25980;SDS011;13772;52.996;9.124;2023-08-17T07:33:52;7.45;;;2.88;;
25980;SDS011;13772;52.996;9.124;2023-08-17T07:36:17;6.65;;;2.65;;
25980;SDS011;13772;52.996;9.124;2023-08-17T07:38:42;9.10;;;3.13;;
25980;SDS011;13772;52.996;9.124;2023-08-17T07:41:07;9.60;;;2.97;;
25980;SDS011;13772;52.996;9.124;2023-08-17T07:43:33;7.28;;;2.85;;
25980;SDS011;13772;52.996;9.124;2023-08-17T07:45:58;5.38;;;3.10;;
25980;SDS011;13772;52.996;9.124;2023-08-17T07:48:24;8.90;;;2.75;;
25980;SDS011;13772;52.996;9.124;2023-08-17T07:50:49;7.85;;;2.85;;
25980;SDS011;13772;52.996;9.124;2023-08-17T07:53:15;6.32;;;2.65;;
25980;SDS011;13772;52.996;9.124;2023-08-17T07:55:40;4.22;;;2.50;;
25980;SDS011;13772;52.996;9.124;2023-08-17T07:58:06;5.93;;;2.42;;
25980;SDS011;13772;52.996;9.124;2023-08-17T08:00:31;6.30;;;2.58;;
25980;SDS011;13772;52.996;9.124;2023-08-17T08:02:57;7.05;;;2.60;;
25980;SDS011;13772;52.996;9.124;2023-08-17T08:05:22;4.55;;;2.30;;
25980;SDS011;13772;52.996;9.124;2023-08-17T08:07:47;6.32;;;3.05;;
25980;SDS011;13772;52.996;9.124;2023-08-17T08:10:12;5.35;;;2.95;;
25980;SDS011;13772;52.996;9.124;2023-08-17T08:12:37;4.95;;;2.47;;
25980;SDS011;13772;52.996;9.124;2023-08-17T08:15:03;5.63;;;2.90;;
25980;SDS011;13772;52.996;9.124;2023-08-17T08:17:28;6.78;;;2.78;;
25980;SDS011;13772;52.996;9.124;2023-08-17T08:19:53;8.70;;;3.30;;
25980;SDS011;13772;52.996;9.124;2023-08-17T08:22:19;5.40;;;2.40;;
25980;SDS011;13772;52.996;9.124;2023-08-17T08:24:44;5.50;;;2.83;;
25980;SDS011;13772;52.996;9.124;2023-08-17T08:27:09;7.00;;;2.80;;
25980;SDS011;13772;52.996;9.124;2023-08-17T08:29:35;5.72;;;2.28;;
25980;SDS011;13772;52.996;9.124;2023-08-17T08:32:00;6.30;;;2.90;;
25980;SDS011;13772;52.996;9.124;2023-08-17T08:34:27;7.18;;;2.40;;
25980;SDS011;13772;52.996;9.124;2023-08-17T08:36:52;5.38;;;2.47;;
25980;SDS011;13772;52.996;9.124;2023-08-17T08:39:18;7.22;;;2.60;;
25980;SDS011;13772;52.996;9.124;2023-08-17T08:41:43;5.60;;;2.53;;
25980;SDS011;13772;52.996;9.124;2023-08-17T08:44:08;4.97;;;2.60;;
25980;SDS011;13772;52.996;9.124;2023-08-17T08:46:34;4.82;;;2.40;;
25980;SDS011;13772;52.996;9.124;2023-08-17T08:49:02;6.20;;;2.05;;
25980;SDS011;13772;52.996;9.124;2023-08-17T08:51:28;4.72;;;2.40;;
25980;SDS011;13772;52.996;9.124;2023-08-17T08:54:02;5.40;;;1.98;;
25980;SDS011;13772;52.996;9.124;2023-08-17T08:56:32;4.07;;;2.20;;
25980;SDS011;13772;52.996;9.124;2023-08-17T08:58:59;6.03;;;2.30;;
25980;SDS011;13772;52.996;9.124;2023-08-17T09:01:26;6.43;;;2.10;;
25980;SDS011;13772;52.996;9.124;2023-08-17T09:03:51;3.92;;;2.30;;
25980;SDS011;13772;52.996;9.124;2023-08-17T09:06:17;4.93;;;2.10;;
25980;SDS011;13772;52.996;9.124;2023-08-17T09:08:43;4.60;;;2.10;;
25980;SDS011;13772;52.996;9.124;2023-08-17T09:11:08;4.53;;;2.15;;
25980;SDS011;13772;52.996;9.124;2023-08-17T09:13:33;4.40;;;2.10;;
25980;SDS011;13772;52.996;9.124;2023-08-17T09:15:59;4.53;;;2.00;;
25980;SDS011;13772;52.996;9.124;2023-08-17T09:18:26;4.40;;;2.28;;
25980;SDS011;13772;52.996;9.124;2023-08-17T09:20:51;3.90;;;1.90;;
25980;SDS011;13772;52.996;9.124;2023-08-17T09:23:18;4.15;;;2.17;;
25980;SDS011;13772;52.996;9.124;2023-08-17T09:25:45;3.55;;;2.08;;
25980;SDS011;13772;52.996;9.124;2023-08-17T09:28:11;4.05;;;2.10;;
25980;SDS011;13772;52.996;9.124;2023-08-17T09:30:59;2.97;;;1.98;;
25980;SDS011;13772;52.996;9.124;2023-08-17T09:33:24;5.15;;;1.90;;
25980;SDS011;13772;52.996;9.124;2023-08-17T09:35:50;4.15;;;2.00;;
25980;SDS011;13772;52.996;9.124;2023-08-17T09:38:15;3.60;;;2.00;;
25980;SDS011;13772;52.996;9.124;2023-08-17T09:40:41;2.65;;;1.63;;
25980;SDS011;13772;52.996;9.124;2023-08-17T09:43:06;5.50;;;1.77;;
25980;SDS011;13772;52.996;9.124;2023-08-17T09:45:31;5.30;;;1.98;;
25980;SDS011;13772;52.996;9.124;2023-08-17T09:48:00;4.03;;;1.65;;
25980;SDS011;13772;52.996;9.124;2023-08-17T09:50:25;4.75;;;2.00;;
25980;SDS011;13772;52.996;9.124;2023-08-17T09:52:53;4.05;;;1.70;;
25980;SDS011;13772;52.996;9.124;2023-08-17T09:55:20;4.65;;;1.63;;
25980;SDS011;13772;52.996;9.124;2023-08-17T09:57:47;2.83;;;1.67;;
25980;SDS011;13772;52.996;9.124;2023-08-17T10:00:13;4.43;;;1.70;;
25980;SDS011;13772;52.996;9.124;2023-08-17T10:02:39;4.85;;;1.77;;
25980;SDS011;13772;52.996;9.124;2023-08-17T10:05:04;3.85;;;1.58;;
25980;SDS011;13772;52.996;9.124;2023-08-17T10:07:30;2.42;;;1.33;;
25980;SDS011;13772;52.996;9.124;2023-08-17T10:09:56;3.67;;;1.63;;
25980;SDS011;13772;52.996;9.124;2023-08-17T10:12:26;5.13;;;1.40;;
25980;SDS011;13772;52.996;9.124;2023-08-17T10:14:58;4.38;;;1.50;;
25980;SDS011;13772;52.996;9.124;2023-08-17T10:17:27;5.28;;;1.63;;
25980;SDS011;13772;52.996;9.124;2023-08-17T10:19:58;2.55;;;1.27;;
25980;SDS011;13772;52.996;9.124;2023-08-17T10:24:49;6.35;;;1.30;;
25980;SDS011;13772;52.996;9.124;2023-08-17T10:27:15;4.32;;;1.30;;
25980;SDS011;13772;52.996;9.124;2023-08-17T10:29:41;3.40;;;1.10;;
25980;SDS011;13772;52.996;9.124;2023-08-17T10:32:07;1.40;;;1.10;;
25980;SDS011;13772;52.996;9.124;2023-08-17T10:34:33;1.83;;;1.23;;
25980;SDS011;13772;52.996;9.124;2023-08-17T10:36:59;2.38;;;1.15;;
25980;SDS011;13772;52.996;9.124;2023-08-17T10:39:26;3.05;;;1.50;;
25980;SDS011;13772;52.996;9.124;2023-08-17T10:41:52;3.10;;;1.40;;
25980;SDS011;13772;52.996;9.124;2023-08-17T10:49:43;2.92;;;1.20;;
25980;SDS011;13772;52.996;9.124;2023-08-17T10:52:09;2.45;;;1.33;;
25980;SDS011;13772;52.996;9.124;2023-08-17T10:54:37;2.75;;;1.08;;
25980;SDS011;13772;52.996;9.124;2023-08-17T10:59:46;2.80;;;1.10;;
25980;SDS011;13772;52.996;9.124;2023-08-17T11:02:31;1.95;;;1.15;;
25980;SDS011;13772;52.996;9.124;2023-08-17T11:04:56;3.35;;;1.33;;
25980;SDS011;13772;52.996;9.124;2023-08-17T11:07:22;2.55;;;1.00;;
25980;SDS011;13772;52.996;9.124;2023-08-17T11:09:48;6.22;;;1.27;;
25980;SDS011;13772;52.996;9.124;2023-08-17T11:12:26;2.13;;;1.08;;
25980;SDS011;13772;52.996;9.124;2023-08-17T11:14:51;4.47;;;1.00;;
25980;SDS011;13772;52.996;9.124;2023-08-17T11:17:19;2.33;;;1.40;;
25980;SDS011;13772;52.996;9.124;2023-08-17T11:19:45;1.63;;;0.95;;
25980;SDS011;13772;52.996;9.124;2023-08-17T11:22:10;2.17;;;1.00;;
25980;SDS011;13772;52.996;9.124;2023-08-17T11:24:36;1.83;;;1.15;;
25980;SDS011;13772;52.996;9.124;2023-08-17T11:27:04;2.45;;;1.00;;
25980;SDS011;13772;52.996;9.124;2023-08-17T11:29:31;3.08;;;1.42;;
25980;SDS011;13772;52.996;9.124;2023-08-17T11:31:56;3.25;;;1.10;;
25980;SDS011;13772;52.996;9.124;2023-08-17T11:34:21;2.95;;;1.20;;
25980;SDS011;13772;52.996;9.124;2023-08-17T11:36:46;3.05;;;1.27;;
25980;SDS011;13772;52.996;9.124;2023-08-17T11:39:12;3.50;;;1.20;;
25980;SDS011;13772;52.996;9.124;2023-08-17T11:41:38;2.47;;;1.38;;
25980;SDS011;13772;52.996;9.124;2023-08-17T11:44:04;5.65;;;1.40;;
25980;SDS011;13772;52.996;9.124;2023-08-17T11:46:29;2.35;;;1.20;;
25980;SDS011;13772;52.996;9.124;2023-08-17T11:48:58;2.17;;;0.98;;
25980;SDS011;13772;52.996;9.124;2023-08-17T11:51:29;3.20;;;1.30;;
25980;SDS011;13772;52.996;9.124;2023-08-17T11:53:58;1.83;;;1.13;;
25980;SDS011;13772;52.996;9.124;2023-08-17T11:56:23;2.42;;;1.40;;
25980;SDS011;13772;52.996;9.124;2023-08-17T11:58:48;2.15;;;1.00;;
25980;SDS011;13772;52.996;9.124;2023-08-17T12:01:14;2.95;;;1.33;;
25980;SDS011;13772;52.996;9.124;2023-08-17T12:03:40;3.72;;;1.20;;
25980;SDS011;13772;52.996;9.124;2023-08-17T12:06:06;1.80;;;0.80;;
25980;SDS011;13772;52.996;9.124;2023-08-17T12:08:31;2.28;;;0.80;;
25980;SDS011;13772;52.996;9.124;2023-08-17T12:10:57;1.80;;;0.98;;
25980;SDS011;13772;52.996;9.124;2023-08-17T12:13:29;1.10;;;0.70;;
25980;SDS011;13772;52.996;9.124;2023-08-17T12:15:54;1.50;;;0.77;;
25980;SDS011;13772;52.996;9.124;2023-08-17T12:18:20;2.15;;;0.68;;
25980;SDS011;13772;52.996;9.124;2023-08-17T12:20:51;0.85;;;0.60;;
25980;SDS011;13772;52.996;9.124;2023-08-17T12:23:16;1.88;;;0.70;;
25980;SDS011;13772;52.996;9.124;2023-08-17T12:25:41;2.05;;;0.65;;
25980;SDS011;13772;52.996;9.124;2023-08-17T12:28:07;1.48;;;0.85;;
25980;SDS011;13772;52.996;9.124;2023-08-17T12:30:32;1.10;;;0.80;;
25980;SDS011;13772;52.996;9.124;2023-08-17T12:32:58;3.33;;;1.23;;
25980;SDS011;13772;52.996;9.124;2023-08-17T12:35:23;2.08;;;0.85;;
25980;SDS011;13772;52.996;9.124;2023-08-17T12:37:50;1.35;;;0.88;;
25980;SDS011;13772;52.996;9.124;2023-08-17T12:40:15;2.92;;;0.90;;
25980;SDS011;13772;52.996;9.124;2023-08-17T12:42:40;4.47;;;0.90;;
25980;SDS011;13772;52.996;9.124;2023-08-17T12:45:05;1.38;;;1.00;;
25980;SDS011;13772;52.996;9.124;2023-08-17T12:47:31;1.60;;;0.75;;
25980;SDS011;13772;52.996;9.124;2023-08-17T12:49:56;2.05;;;0.60;;
25980;SDS011;13772;52.996;9.124;2023-08-17T12:52:21;1.90;;;0.63;;
25980;SDS011;13772;52.996;9.124;2023-08-17T12:54:46;1.73;;;0.60;;
25980;SDS011;13772;52.996;9.124;2023-08-17T12:57:12;1.13;;;0.68;;
25980;SDS011;13772;52.996;9.124;2023-08-17T12:59:37;1.35;;;0.70;;
25980;SDS011;13772;52.996;9.124;2023-08-17T13:02:02;2.53;;;0.68;;
25980;SDS011;13772;52.996;9.124;2023-08-17T13:04:27;1.13;;;0.68;;
25980;SDS011;13772;52.996;9.124;2023-08-17T13:06:52;2.10;;;0.88;;
25980;SDS011;13772;52.996;9.124;2023-08-17T13:09:19;1.17;;;0.63;;
25980;SDS011;13772;52.996;9.124;2023-08-17T13:11:45;1.10;;;0.50;;
25980;SDS011;13772;52.996;9.124;2023-08-17T13:14:11;0.88;;;0.60;;
25980;SDS011;13772;52.996;9.124;2023-08-17T13:16:36;2.40;;;0.70;;
25980;SDS011;13772;52.996;9.124;2023-08-17T13:19:01;0.57;;;0.57;;
25980;SDS011;13772;52.996;9.124;2023-08-17T13:21:26;2.05;;;0.80;;
25980;SDS011;13772;52.996;9.124;2023-08-17T13:23:51;5.28;;;1.08;;
25980;SDS011;13772;52.996;9.124;2023-08-17T13:26:17;1.40;;;0.65;;
25980;SDS011;13772;52.996;9.124;2023-08-17T13:28:42;3.13;;;0.80;;
25980;SDS011;13772;52.996;9.124;2023-08-17T13:31:07;1.77;;;0.65;;
25980;SDS011;13772;52.996;9.124;2023-08-17T13:33:32;4.20;;;0.90;;
25980;SDS011;13772;52.996;9.124;2023-08-17T13:35:58;2.75;;;1.10;;
25980;SDS011;13772;52.996;9.124;2023-08-17T13:38:23;1.15;;;0.85;;
25980;SDS011;13772;52.996;9.124;2023-08-17T13:40:48;1.90;;;1.02;;
25980;SDS011;13772;52.996;9.124;2023-08-17T13:43:13;1.08;;;0.90;;
25980;SDS011;13772;52.996;9.124;2023-08-17T13:45:39;2.65;;;1.00;;
25980;SDS011;13772;52.996;9.124;2023-08-17T13:48:05;4.80;;;1.40;;
25980;SDS011;13772;52.996;9.124;2023-08-17T13:50:31;1.45;;;0.70;;
25980;SDS011;13772;52.996;9.124;2023-08-17T13:52:56;1.40;;;0.90;;
25980;SDS011;13772;52.996;9.124;2023-08-17T13:55:25;4.25;;;1.10;;
25980;SDS011;13772;52.996;9.124;2023-08-17T13:57:50;3.85;;;0.98;;
25980;SDS011;13772;52.996;9.124;2023-08-17T14:00:17;2.17;;;1.30;;
25980;SDS011;13772;52.996;9.124;2023-08-17T14:02:43;1.70;;;1.00;;
25980;SDS011;13772;52.996;9.124;2023-08-17T14:05:08;3.70;;;1.02;;
25980;SDS011;13772;52.996;9.124;2023-08-17T14:07:33;2.95;;;1.13;;
25980;SDS011;13772;52.996;9.124;2023-08-17T14:09:58;2.58;;;0.98;;
25980;SDS011;13772;52.996;9.124;2023-08-17T14:12:24;1.40;;;1.00;;
25980;SDS011;13772;52.996;9.124;2023-08-17T14:14:49;1.35;;;1.05;;
25980;SDS011;13772;52.996;9.124;2023-08-17T14:17:14;2.42;;;1.20;;
25980;SDS011;13772;52.996;9.124;2023-08-17T14:19:39;2.47;;;1.08;;
25980;SDS011;13772;52.996;9.124;2023-08-17T14:22:05;1.92;;;1.15;;
25980;SDS011;13772;52.996;9.124;2023-08-17T14:24:30;2.53;;;1.05;;
25980;SDS011;13772;52.996;9.124;2023-08-17T14:26:55;1.80;;;1.15;;
25980;SDS011;13772;52.996;9.124;2023-08-17T14:29:23;2.92;;;1.27;;
25980;SDS011;13772;52.996;9.124;2023-08-17T14:31:48;1.85;;;1.10;;
25980;SDS011;13772;52.996;9.124;2023-08-17T14:34:13;2.13;;;1.05;;
25980;SDS011;13772;52.996;9.124;2023-08-17T14:36:40;2.13;;;1.00;;
25980;SDS011;13772;52.996;9.124;2023-08-17T14:39:05;2.67;;;1.30;;
25980;SDS011;13772;52.996;9.124;2023-08-17T14:41:30;1.98;;;1.20;;
25980;SDS011;13772;52.996;9.124;2023-08-17T14:43:58;3.35;;;1.38;;
25980;SDS011;13772;52.996;9.124;2023-08-17T14:46:24;3.58;;;1.35;;
25980;SDS011;13772;52.996;9.124;2023-08-17T14:48:50;1.60;;;1.00;;
25980;SDS011;13772;52.996;9.124;2023-08-17T14:51:15;3.90;;;1.30;;
25980;SDS011;13772;52.996;9.124;2023-08-17T14:53:40;2.40;;;1.08;;
25980;SDS011;13772;52.996;9.124;2023-08-17T14:56:05;2.78;;;1.08;;
25980;SDS011;13772;52.996;9.124;2023-08-17T14:58:30;4.88;;;1.23;;
25980;SDS011;13772;52.996;9.124;2023-08-17T15:00:56;2.67;;;1.30;;
25980;SDS011;13772;52.996;9.124;2023-08-17T15:03:21;1.55;;;1.10;;
25980;SDS011;13772;52.996;9.124;2023-08-17T15:05:46;2.22;;;1.38;;
25980;SDS011;13772;52.996;9.124;2023-08-17T15:08:11;2.25;;;1.40;;
25980;SDS011;13772;52.996;9.124;2023-08-17T15:10:36;4.47;;;1.30;;
25980;SDS011;13772;52.996;9.124;2023-08-17T15:13:02;1.92;;;1.30;;
25980;SDS011;13772;52.996;9.124;2023-08-17T15:15:27;2.88;;;1.10;;
25980;SDS011;13772;52.996;9.124;2023-08-17T15:17:52;2.70;;;1.20;;
25980;SDS011;13772;52.996;9.124;2023-08-17T15:20:17;1.80;;;1.25;;
25980;SDS011;13772;52.996;9.124;2023-08-17T15:22:43;2.88;;;1.48;;
25980;SDS011;13772;52.996;9.124;2023-08-17T15:25:08;2.60;;;1.20;;
25980;SDS011;13772;52.996;9.124;2023-08-17T15:27:33;4.47;;;1.50;;
25980;SDS011;13772;52.996;9.124;2023-08-17T15:29:59;2.28;;;1.38;;
25980;SDS011;13772;52.996;9.124;2023-08-17T15:32:24;2.60;;;1.45;;
25980;SDS011;13772;52.996;9.124;2023-08-17T15:34:49;3.20;;;1.48;;
25980;SDS011;13772;52.996;9.124;2023-08-17T15:37:14;3.53;;;1.50;;
25980;SDS011;13772;52.996;9.124;2023-08-17T15:39:40;3.58;;;1.67;;
25980;SDS011;13772;52.996;9.124;2023-08-17T15:42:05;3.60;;;1.50;;
25980;SDS011;13772;52.996;9.124;2023-08-17T15:44:30;2.60;;;1.50;;
25980;SDS011;13772;52.996;9.124;2023-08-17T15:46:57;4.82;;;1.98;;
25980;SDS011;13772;52.996;9.124;2023-08-17T15:49:23;3.28;;;1.38;;
25980;SDS011;13772;52.996;9.124;2023-08-17T15:51:48;4.97;;;1.75;;
25980;SDS011;13772;52.996;9.124;2023-08-17T15:54:14;6.35;;;1.83;;
25980;SDS011;13772;52.996;9.124;2023-08-17T15:56:39;2.88;;;1.45;;
25980;SDS011;13772;52.996;9.124;2023-08-17T15:59:04;5.15;;;1.30;;
25980;SDS011;13772;52.996;9.124;2023-08-17T16:01:29;2.90;;;1.40;;
25980;SDS011;13772;52.996;9.124;2023-08-17T16:03:55;4.38;;;1.55;;
25980;SDS011;13772;52.996;9.124;2023-08-17T16:06:21;3.97;;;1.58;;
25980;SDS011;13772;52.996;9.124;2023-08-17T16:08:46;5.47;;;1.90;;
25980;SDS011;13772;52.996;9.124;2023-08-17T16:11:11;5.07;;;1.63;;
25980;SDS011;13772;52.996;9.124;2023-08-17T16:13:40;2.50;;;1.60;;
25980;SDS011;13772;52.996;9.124;2023-08-17T16:16:05;4.40;;;1.80;;
25980;SDS011;13772;52.996;9.124;2023-08-17T16:18:31;7.57;;;2.22;;
25980;SDS011;13772;52.996;9.124;2023-08-17T16:20:56;4.03;;;1.90;;
25980;SDS011;13772;52.996;9.124;2023-08-17T16:23:21;3.40;;;1.83;;
25980;SDS011;13772;52.996;9.124;2023-08-17T16:25:46;5.55;;;1.92;;
25980;SDS011;13772;52.996;9.124;2023-08-17T16:28:12;3.40;;;1.98;;
25980;SDS011;13772;52.996;9.124;2023-08-17T16:30:37;6.05;;;2.35;;
25980;SDS011;13772;52.996;9.124;2023-08-17T16:33:04;3.75;;;2.20;;
25980;SDS011;13772;52.996;9.124;2023-08-17T16:35:29;4.20;;;1.77;;
25980;SDS011;13772;52.996;9.124;2023-08-17T16:37:55;4.13;;;2.03;;
25980;SDS011;13772;52.996;9.124;2023-08-17T16:40:20;5.13;;;1.83;;
25980;SDS011;13772;52.996;9.124;2023-08-17T16:42:45;3.90;;;1.83;;
25980;SDS011;13772;52.996;9.124;2023-08-17T16:45:12;5.65;;;2.35;;
25980;SDS011;13772;52.996;9.124;2023-08-17T16:47:37;8.02;;;2.75;;
25980;SDS011;13772;52.996;9.124;2023-08-17T16:50:02;5.00;;;2.10;;
25980;SDS011;13772;52.996;9.124;2023-08-17T16:52:28;4.53;;;1.88;;
25980;SDS011;13772;52.996;9.124;2023-08-17T16:54:53;4.25;;;2.28;;
25980;SDS011;13772;52.996;9.124;2023-08-17T16:57:18;3.47;;;2.30;;
25980;SDS011;13772;52.996;9.124;2023-08-17T16:59:43;6.90;;;2.30;;
25980;SDS011;13772;52.996;9.124;2023-08-17T17:02:09;5.50;;;2.40;;
25980;SDS011;13772;52.996;9.124;2023-08-17T17:04:34;4.45;;;2.67;;
25980;SDS011;13772;52.996;9.124;2023-08-17T17:07:01;7.22;;;2.50;;
25980;SDS011;13772;52.996;9.124;2023-08-17T17:09:26;6.22;;;2.90;;
25980;SDS011;13772;52.996;9.124;2023-08-17T17:11:51;3.88;;;2.17;;
25980;SDS011;13772;52.996;9.124;2023-08-17T17:14:17;6.60;;;3.03;;
25980;SDS011;13772;52.996;9.124;2023-08-17T17:16:42;5.10;;;3.30;;
25980;SDS011;13772;52.996;9.124;2023-08-17T17:19:07;3.70;;;2.88;;
25980;SDS011;13772;52.996;9.124;2023-08-17T17:21:33;5.13;;;3.05;;
25980;SDS011;13772;52.996;9.124;2023-08-17T17:23:58;5.18;;;3.03;;
25980;SDS011;13772;52.996;9.124;2023-08-17T17:26:23;4.40;;;3.05;;
25980;SDS011;13772;52.996;9.124;2023-08-17T17:28:50;5.38;;;3.10;;
25980;SDS011;13772;52.996;9.124;2023-08-17T17:31:15;3.75;;;2.80;;
25980;SDS011;13772;52.996;9.124;2023-08-17T17:33:40;3.90;;;2.78;;
25980;SDS011;13772;52.996;9.124;2023-08-17T17:36:05;3.45;;;2.47;;
25980;SDS011;13772;52.996;9.124;2023-08-17T17:38:31;4.22;;;2.72;;
25980;SDS011;13772;52.996;9.124;2023-08-17T17:40:56;6.18;;;2.40;;
25980;SDS011;13772;52.996;9.124;2023-08-17T17:43:22;3.40;;;2.30;;
25980;SDS011;13772;52.996;9.124;2023-08-17T17:45:48;6.13;;;2.70;;
25980;SDS011;13772;52.996;9.124;2023-08-17T17:48:15;4.03;;;2.25;;
25980;SDS011;13772;52.996;9.124;2023-08-17T17:50:40;3.13;;;2.10;;
25980;SDS011;13772;52.996;9.124;2023-08-17T17:53:05;5.68;;;2.20;;
25980;SDS011;13772;52.996;9.124;2023-08-17T17:55:31;3.03;;;2.00;;
25980;SDS011;13772;52.996;9.124;2023-08-17T17:57:57;5.63;;;2.42;;
25980;SDS011;13772;52.996;9.124;2023-08-17T18:00:22;4.00;;;2.00;;
25980;SDS011;13772;52.996;9.124;2023-08-17T18:02:48;5.32;;;2.28;;
25980;SDS011;13772;52.996;9.124;2023-08-17T18:05:13;3.47;;;2.17;;
25980;SDS011;13772;52.996;9.124;2023-08-17T18:07:38;7.85;;;2.75;;
25980;SDS011;13772;52.996;9.124;2023-08-17T18:10:04;2.88;;;1.85;;
25980;SDS011;13772;52.996;9.124;2023-08-17T18:12:30;4.45;;;2.47;;
25980;SDS011;13772;52.996;9.124;2023-08-17T18:14:57;3.97;;;1.88;;
25980;SDS011;13772;52.996;9.124;2023-08-17T18:17:22;2.85;;;1.83;;
25980;SDS011;13772;52.996;9.124;2023-08-17T18:19:48;7.63;;;1.90;;
25980;SDS011;13772;52.996;9.124;2023-08-17T18:22:13;3.80;;;2.10;;
25980;SDS011;13772;52.996;9.124;2023-08-17T18:24:38;4.97;;;2.00;;
25980;SDS011;13772;52.996;9.124;2023-08-17T18:27:03;3.38;;;1.50;;
25980;SDS011;13772;52.996;9.124;2023-08-17T18:29:29;2.53;;;1.55;;
25980;SDS011;13772;52.996;9.124;2023-08-17T18:31:54;5.55;;;1.67;;
25980;SDS011;13772;52.996;9.124;2023-08-17T18:34:19;2.78;;;1.60;;
25980;SDS011;13772;52.996;9.124;2023-08-17T18:36:44;3.60;;;1.70;;
25980;SDS011;13772;52.996;9.124;2023-08-17T18:39:10;5.38;;;2.28;;
25980;SDS011;13772;52.996;9.124;2023-08-17T18:41:35;3.20;;;1.80;;
25980;SDS011;13772;52.996;9.124;2023-08-17T18:44:00;5.72;;;1.77;;
25980;SDS011;13772;52.996;9.124;2023-08-17T18:46:25;5.03;;;2.35;;
25980;SDS011;13772;52.996;9.124;2023-08-17T18:48:51;4.03;;;1.98;;
25980;SDS011;13772;52.996;9.124;2023-08-17T18:51:16;2.20;;;1.52;;
25980;SDS011;13772;52.996;9.124;2023-08-17T18:53:41;3.97;;;1.73;;
25980;SDS011;13772;52.996;9.124;2023-08-17T18:56:07;3.30;;;2.10;;
25980;SDS011;13772;52.996;9.124;2023-08-17T18:58:32;3.75;;;1.52;;
25980;SDS011;13772;52.996;9.124;2023-08-17T19:00:57;2.88;;;1.60;;
25980;SDS011;13772;52.996;9.124;2023-08-17T19:03:22;4.55;;;1.90;;
25980;SDS011;13772;52.996;9.124;2023-08-17T19:05:48;3.25;;;1.80;;
25980;SDS011;13772;52.996;9.124;2023-08-17T19:08:13;3.03;;;1.80;;
25980;SDS011;13772;52.996;9.124;2023-08-17T19:10:38;4.35;;;1.98;;
25980;SDS011;13772;52.996;9.124;2023-08-17T19:13:03;6.88;;;2.38;;
25980;SDS011;13772;52.996;9.124;2023-08-17T19:15:29;3.47;;;1.85;;
25980;SDS011;13772;52.996;9.124;2023-08-17T19:17:54;6.63;;;2.10;;
25980;SDS011;13772;52.996;9.124;2023-08-17T19:20:19;4.13;;;2.00;;
25980;SDS011;13772;52.996;9.124;2023-08-17T19:22:44;4.13;;;1.90;;
25980;SDS011;13772;52.996;9.124;2023-08-17T19:25:10;6.03;;;2.08;;
25980;SDS011;13772;52.996;9.124;2023-08-17T19:27:35;4.00;;;1.95;;
25980;SDS011;13772;52.996;9.124;2023-08-17T19:30:00;4.18;;;1.90;;
25980;SDS011;13772;52.996;9.124;2023-08-17T19:32:26;4.57;;;1.90;;
25980;SDS011;13772;52.996;9.124;2023-08-17T19:34:51;4.32;;;2.13;;
25980;SDS011;13772;52.996;9.124;2023-08-17T19:37:16;3.35;;;1.90;;
25980;SDS011;13772;52.996;9.124;2023-08-17T19:39:41;3.53;;;2.17;;
25980;SDS011;13772;52.996;9.124;2023-08-17T19:42:07;3.97;;;1.90;;
25980;SDS011;13772;52.996;9.124;2023-08-17T19:44:32;6.75;;;1.98;;
25980;SDS011;13772;52.996;9.124;2023-08-17T19:46:57;6.03;;;2.05;;
25980;SDS011;13772;52.996;9.124;2023-08-17T19:49:23;6.57;;;1.90;;
25980;SDS011;13772;52.996;9.124;2023-08-17T19:51:49;4.38;;;2.25;;
25980;SDS011;13772;52.996;9.124;2023-08-17T19:54:14;3.17;;;1.90;;
25980;SDS011;13772;52.996;9.124;2023-08-17T19:56:39;2.80;;;1.80;;
25980;SDS011;13772;52.996;9.124;2023-08-17T19:59:05;2.70;;;2.08;;
25980;SDS011;13772;52.996;9.124;2023-08-17T20:01:30;10.60;;;2.30;;